sensor_id;sensor_type;location;lat;lon;timestamp;pressure;altitude;pressure_sealevel;temperature;humidity
2339;BME280;1180;51.438;6.978;2023-02-12T00:00:32;102465.81;;;11.05;94.20
2339;BME280;1180;51.438;6.978;2023-02-12T00:02:57;102468.50;;;11.01;94.46
2339;BME280;1180;51.438;6.978;2023-02-12T00:05:23;102468.50;;;11.01;94.64
2339;BME280;1180;51.438;6.978;2023-02-12T00:07:49;102470.16;;;11.03;94.72
2339;BME280;1180;51.438;6.978;2023-02-12T00:10:14;102461.47;;;11.07;94.13
2339;BME280;1180;51.438;6.978;2023-02-12T00:12:39;102467.50;;;11.06;94.13
2339;BME280;1180;51.438;6.978;2023-02-12T00:15:05;102465.03;;;11.03;94.19
2339;BME280;1180;51.438;6.978;2023-02-12T00:17:30;102461.47;;;11.07;94.32
2339;BME280;1180;51.438;6.978;2023-02-12T00:19:56;102456.28;;;11.09;94.19
2339;BME280;1180;51.438;6.978;2023-02-12T00:22:21;102464.13;;;11.04;94.38
2339;BME280;1180;51.438;6.978;2023-02-12T00:24:46;102461.75;;;10.96;94.59
2339;BME280;1180;51.438;6.978;2023-02-12T00:27:12;102461.69;;;11.00;94.64
2339;BME280;1180;51.438;6.978;2023-02-12T00:29:37;102469.38;;;11.00;94.56
2339;BME280;1180;51.438;6.978;2023-02-12T00:32:02;102471.13;;;10.99;94.94
2339;BME280;1180;51.438;6.978;2023-02-12T00:34:28;102470.25;;;11.00;94.69
2339;BME280;1180;51.438;6.978;2023-02-12T00:36:53;102461.66;;;11.01;94.57
2339;BME280;1180;51.438;6.978;2023-02-12T00:39:18;102467.59;;;11.03;94.29
2339;BME280;1180;51.438;6.978;2023-02-12T00:41:44;102455.56;;;11.04;94.73
2339;BME280;1180;51.438;6.978;2023-02-12T00:44:09;102457.25;;;11.05;94.51
2339;BME280;1180;51.438;6.978;2023-02-12T00:46:34;102459.06;;;11.01;94.06
2339;BME280;1180;51.438;6.978;2023-02-12T00:49:00;102470.16;;;11.03;94.06
2339;BME280;1180;51.438;6.978;2023-02-12T00:51:25;102465.97;;;10.99;94.42
2339;BME280;1180;51.438;6.978;2023-02-12T00:53:51;102463.34;;;11.01;94.31
2339;BME280;1180;51.438;6.978;2023-02-12T00:56:16;102458.13;;;11.05;94.33
2339;BME280;1180;51.438;6.978;2023-02-12T00:58:41;102459.81;;;11.06;94.11
2339;BME280;1180;51.438;6.978;2023-02-12T01:01:07;102453.94;;;11.01;94.52
2339;BME280;1180;51.438;6.978;2023-02-12T01:03:32;102453.78;;;11.07;94.27
2339;BME280;1180;51.438;6.978;2023-02-12T01:05:57;102457.22;;;11.06;93.79
2339;BME280;1180;51.438;6.978;2023-02-12T01:08:23;102453.81;;;11.06;93.69
2339;BME280;1180;51.438;6.978;2023-02-12T01:11:01;102460.03;;;10.97;94.27
2339;BME280;1180;51.438;6.978;2023-02-12T01:13:30;102459.16;;;10.98;94.19
2339;BME280;1180;51.438;6.978;2023-02-12T01:16:05;102459.97;;;11.00;94.18
2339;BME280;1180;51.438;6.978;2023-02-12T01:18:33;102456.69;;;10.93;94.12
2339;BME280;1180;51.438;6.978;2023-02-12T01:20:59;102454.84;;;10.98;94.72
2339;BME280;1180;51.438;6.978;2023-02-12T01:23:25;102454.75;;;11.03;93.84
2339;BME280;1180;51.438;6.978;2023-02-12T01:25:51;102451.44;;;10.98;93.81
2339;BME280;1180;51.438;6.978;2023-02-12T01:28:16;102447.28;;;10.94;94.52
2339;BME280;1180;51.438;6.978;2023-02-12T01:30:41;102446.34;;;10.96;94.31
2339;BME280;1180;51.438;6.978;2023-02-12T01:33:07;102445.66;;;10.90;94.38
2339;BME280;1180;51.438;6.978;2023-02-12T01:35:32;102447.19;;;10.97;94.23
2339;BME280;1180;51.438;6.978;2023-02-12T01:37:57;102448.09;;;10.96;94.25
2339;BME280;1180;51.438;6.978;2023-02-12T01:40:23;102445.34;;;11.02;94.05
2339;BME280;1180;51.438;6.978;2023-02-12T01:42:48;102450.69;;;10.94;94.08
2339;BME280;1180;51.438;6.978;2023-02-12T01:47:44;102445.47;;;10.97;94.17
2339;BME280;1180;51.438;6.978;2023-02-12T01:50:12;102440.41;;;10.93;94.19
2339;BME280;1180;51.438;6.978;2023-02-12T01:52:43;102450.03;;;10.86;94.38
2339;BME280;1180;51.438;6.978;2023-02-12T01:55:10;102436.16;;;10.92;94.32
2339;BME280;1180;51.438;6.978;2023-02-12T01:57:38;102443.94;;;10.90;94.64
2339;BME280;1180;51.438;6.978;2023-02-12T02:00:08;102443.88;;;10.92;94.25
2339;BME280;1180;51.438;6.978;2023-02-12T02:02:36;102438.63;;;10.96;94.25
2339;BME280;1180;51.438;6.978;2023-02-12T02:05:03;102430.00;;;10.99;94.08
2339;BME280;1180;51.438;6.978;2023-02-12T02:07:30;102433.47;;;10.98;93.73
2339;BME280;1180;51.438;6.978;2023-02-12T02:09:56;102435.28;;;10.93;94.07
2339;BME280;1180;51.438;6.978;2023-02-12T02:12:23;102436.16;;;10.93;94.07
2339;BME280;1180;51.438;6.978;2023-02-12T02:15:07;102433.69;;;10.89;94.07
2339;BME280;1180;51.438;6.978;2023-02-12T02:17:58;102434.47;;;10.92;94.17
2339;BME280;1180;51.438;6.978;2023-02-12T02:29:03;102426.22;;;10.79;94.45
2339;BME280;1180;51.438;6.978;2023-02-12T02:31:46;102423.66;;;10.79;94.88
2339;BME280;1180;51.438;6.978;2023-02-12T02:34:46;102415.13;;;10.77;94.84
2339;BME280;1180;51.438;6.978;2023-02-12T02:37:20;102413.22;;;10.86;94.50
2339;BME280;1180;51.438;6.978;2023-02-12T02:39:56;102423.63;;;10.81;94.74
2339;BME280;1180;51.438;6.978;2023-02-12T02:42:29;102420.91;;;10.87;94.20
2339;BME280;1180;51.438;6.978;2023-02-12T02:45:02;102417.44;;;10.88;93.96
2339;BME280;1180;51.438;6.978;2023-02-12T02:47:47;102423.53;;;10.84;93.86
2339;BME280;1180;51.438;6.978;2023-02-12T02:52:49;102427.97;;;10.77;94.76
2339;BME280;1180;51.438;6.978;2023-02-12T02:55:18;102428.78;;;10.79;94.70
2339;BME280;1180;51.438;6.978;2023-02-12T02:57:49;102425.41;;;10.77;94.74
2339;BME280;1180;51.438;6.978;2023-02-12T03:00:43;102420.97;;;10.84;94.95
2339;BME280;1180;51.438;6.978;2023-02-12T03:05:44;102409.84;;;10.83;94.29
2339;BME280;1180;51.438;6.978;2023-02-12T03:08:14;102410.88;;;10.76;94.79
2339;BME280;1180;51.438;6.978;2023-02-12T03:10:45;102414.22;;;10.80;95.02
2339;BME280;1180;51.438;6.978;2023-02-12T03:13:25;102418.41;;;10.84;94.67
2339;BME280;1180;51.438;6.978;2023-02-12T03:16:22;102429.59;;;10.81;94.48
2339;BME280;1180;51.438;6.978;2023-02-12T03:18:58;102420.91;;;10.86;94.52
2339;BME280;1180;51.438;6.978;2023-02-12T03:21:32;102418.34;;;10.86;94.18
2339;BME280;1180;51.438;6.978;2023-02-12T03:24:06;102416.59;;;10.88;94.22
2339;BME280;1180;51.438;6.978;2023-02-12T03:26:48;102414.16;;;10.83;94.29
2339;BME280;1180;51.438;6.978;2023-02-12T03:29:15;102412.47;;;10.82;94.49
2339;BME280;1180;51.438;6.978;2023-02-12T03:32:01;102421.81;;;10.84;94.53
2339;BME280;1180;51.438;6.978;2023-02-12T03:40:19;102414.91;;;10.87;94.16
2339;BME280;1180;51.438;6.978;2023-02-12T03:46:09;102416.75;;;10.81;93.81
2339;BME280;1180;51.438;6.978;2023-02-12T03:49:01;102421.06;;;10.81;93.86
2339;BME280;1180;51.438;6.978;2023-02-12T03:51:41;102426.28;;;10.78;94.25
2339;BME280;1180;51.438;6.978;2023-02-12T03:54:09;102424.56;;;10.77;94.50
2339;BME280;1180;51.438;6.978;2023-02-12T03:56:43;102421.88;;;10.81;94.21
2339;BME280;1180;51.438;6.978;2023-02-12T03:59:13;102417.69;;;10.79;93.97
2339;BME280;1180;51.438;6.978;2023-02-12T04:01:38;102432.22;;;10.78;94.28
2339;BME280;1180;51.438;6.978;2023-02-12T04:04:06;102421.88;;;10.81;94.23
2339;BME280;1180;51.438;6.978;2023-02-12T04:06:32;102428.63;;;10.86;93.68
2339;BME280;1180;51.438;6.978;2023-02-12T04:09:02;102432.16;;;10.81;93.62
2339;BME280;1180;51.438;6.978;2023-02-12T04:14:21;102439.94;;;10.78;93.70
2339;BME280;1180;51.438;6.978;2023-02-12T04:19:41;102442.50;;;10.78;94.28
2339;BME280;1180;51.438;6.978;2023-02-12T04:25:04;102441.63;;;10.79;94.09
2339;BME280;1180;51.438;6.978;2023-02-12T04:27:43;102441.63;;;10.79;94.00
2339;BME280;1180;51.438;6.978;2023-02-12T04:32:56;102450.13;;;10.81;93.42
2339;BME280;1180;51.438;6.978;2023-02-12T04:35:25;102460.47;;;10.80;93.66
2339;BME280;1180;51.438;6.978;2023-02-12T04:37:58;102465.63;;;10.78;93.72
2339;BME280;1180;51.438;6.978;2023-02-12T04:40:26;102463.84;;;10.82;93.68
2339;BME280;1180;51.438;6.978;2023-02-12T04:42:52;102464.56;;;10.87;93.31
2339;BME280;1180;51.438;6.978;2023-02-12T04:45:26;102472.34;;;10.84;93.29
2339;BME280;1180;51.438;6.978;2023-02-12T04:47:52;102474.19;;;10.79;93.72
2339;BME280;1180;51.438;6.978;2023-02-12T04:50:18;102476.69;;;10.80;93.85
2339;BME280;1180;51.438;6.978;2023-02-12T04:52:43;102476.63;;;10.83;93.32
2339;BME280;1180;51.438;6.978;2023-02-12T04:55:09;102470.78;;;10.77;93.36
2339;BME280;1180;51.438;6.978;2023-02-12T04:57:34;102473.34;;;10.78;94.09
2339;BME280;1180;51.438;6.978;2023-02-12T04:59:59;102473.34;;;10.78;93.37
2339;BME280;1180;51.438;6.978;2023-02-12T05:02:25;102475.03;;;10.79;93.61
2339;BME280;1180;51.438;6.978;2023-02-12T05:04:50;102480.31;;;10.73;93.74
2339;BME280;1180;51.438;6.978;2023-02-12T05:07:15;102474.44;;;10.68;94.17
2339;BME280;1180;51.438;6.978;2023-02-12T05:09:41;102473.41;;;10.75;94.18
2339;BME280;1180;51.438;6.978;2023-02-12T05:12:07;102469.19;;;10.73;94.06
2339;BME280;1180;51.438;6.978;2023-02-12T05:14:32;102476.00;;;10.74;93.80
2339;BME280;1180;51.438;6.978;2023-02-12T05:16:58;102473.50;;;10.72;93.77
2339;BME280;1180;51.438;6.978;2023-02-12T05:19:23;102482.88;;;10.73;94.01
2339;BME280;1180;51.438;6.978;2023-02-12T05:21:50;102478.66;;;10.71;94.37
2339;BME280;1180;51.438;6.978;2023-02-12T05:24:16;102479.44;;;10.74;94.02
2339;BME280;1180;51.438;6.978;2023-02-12T05:26:43;102483.75;;;10.72;93.82
2339;BME280;1180;51.438;6.978;2023-02-12T05:29:08;102488.13;;;10.68;93.81
2339;BME280;1180;51.438;6.978;2023-02-12T05:31:34;102482.06;;;10.71;94.06
2339;BME280;1180;51.438;6.978;2023-02-12T05:34:00;102491.34;;;10.77;93.78
2339;BME280;1180;51.438;6.978;2023-02-12T05:36:25;102481.13;;;10.75;93.68
2339;BME280;1180;51.438;6.978;2023-02-12T05:38:52;102485.28;;;10.79;93.15
2339;BME280;1180;51.438;6.978;2023-02-12T05:41:20;102486.25;;;10.75;93.22
2339;BME280;1180;51.438;6.978;2023-02-12T05:43:46;102493.06;;;10.78;93.37
2339;BME280;1180;51.438;6.978;2023-02-12T05:46:12;102487.94;;;10.76;93.07
2339;BME280;1180;51.438;6.978;2023-02-12T05:48:38;102489.41;;;10.87;92.71
2339;BME280;1180;51.438;6.978;2023-02-12T05:51:09;102489.59;;;10.79;92.75
2339;BME280;1180;51.438;6.978;2023-02-12T05:53:36;102494.84;;;10.74;92.90
2339;BME280;1180;51.438;6.978;2023-02-12T05:56:17;102497.41;;;10.74;93.11
2339;BME280;1180;51.438;6.978;2023-02-12T05:58:46;102496.53;;;10.74;93.02
2339;BME280;1180;51.438;6.978;2023-02-12T06:01:17;102496.69;;;10.67;93.17
2339;BME280;1180;51.438;6.978;2023-02-12T06:03:43;102496.69;;;10.69;92.94
2339;BME280;1180;51.438;6.978;2023-02-12T06:06:09;102497.47;;;10.71;92.76
2339;BME280;1180;51.438;6.978;2023-02-12T06:08:35;102496.44;;;10.78;92.38
2339;BME280;1180;51.438;6.978;2023-02-12T06:11:02;102494.75;;;10.77;92.23
2339;BME280;1180;51.438;6.978;2023-02-12T06:13:28;102493.78;;;10.83;91.74
2339;BME280;1180;51.438;6.978;2023-02-12T06:15:54;102496.44;;;10.78;91.89
2339;BME280;1180;51.438;6.978;2023-02-12T06:18:19;102499.00;;;10.80;91.67
2339;BME280;1180;51.438;6.978;2023-02-12T06:20:45;102491.31;;;10.78;91.85
2339;BME280;1180;51.438;6.978;2023-02-12T06:23:10;102490.50;;;10.76;91.64
2339;BME280;1180;51.438;6.978;2023-02-12T06:25:35;102497.34;;;10.76;91.12
2339;BME280;1180;51.438;6.978;2023-02-12T06:28:00;102499.91;;;10.77;91.52
2339;BME280;1180;51.438;6.978;2023-02-12T06:30:26;102492.22;;;10.76;91.45
2339;BME280;1180;51.438;6.978;2023-02-12T06:32:51;102495.63;;;10.78;91.78
2339;BME280;1180;51.438;6.978;2023-02-12T06:35:16;102501.66;;;10.75;91.55
2339;BME280;1180;51.438;6.978;2023-02-12T06:37:42;102500.00;;;10.73;91.33
2339;BME280;1180;51.438;6.978;2023-02-12T06:40:07;102502.56;;;10.73;91.77
2339;BME280;1180;51.438;6.978;2023-02-12T06:42:33;102501.59;;;10.77;91.82
2339;BME280;1180;51.438;6.978;2023-02-12T06:44:58;102499.03;;;10.78;91.50
2339;BME280;1180;51.438;6.978;2023-02-12T06:47:23;102506.78;;;10.75;91.27
2339;BME280;1180;51.438;6.978;2023-02-12T06:49:49;102505.91;;;10.76;91.72
2339;BME280;1180;51.438;6.978;2023-02-12T06:52:14;102511.78;;;10.81;91.22
2339;BME280;1180;51.438;6.978;2023-02-12T06:54:39;102503.34;;;10.76;91.23
2339;BME280;1180;51.438;6.978;2023-02-12T06:57:05;102510.97;;;10.81;91.18
2339;BME280;1180;51.438;6.978;2023-02-12T06:59:30;102517.84;;;10.79;91.27
2339;BME280;1180;51.438;6.978;2023-02-12T07:01:56;102516.13;;;10.79;90.99
2339;BME280;1180;51.438;6.978;2023-02-12T07:04:21;102513.69;;;10.73;90.99
2339;BME280;1180;51.438;6.978;2023-02-12T07:06:47;102523.81;;;10.79;91.06
2339;BME280;1180;51.438;6.978;2023-02-12T07:09:13;102519.59;;;10.77;91.17
2339;BME280;1180;51.438;6.978;2023-02-12T07:11:38;102522.13;;;10.78;91.22
2339;BME280;1180;51.438;6.978;2023-02-12T07:14:04;102516.03;;;10.82;90.73
2339;BME280;1180;51.438;6.978;2023-02-12T07:16:29;102518.66;;;10.81;91.17
2339;BME280;1180;51.438;6.978;2023-02-12T07:18:54;102520.28;;;10.85;91.33
2339;BME280;1180;51.438;6.978;2023-02-12T07:21:20;102525.28;;;10.90;90.67
2339;BME280;1180;51.438;6.978;2023-02-12T07:23:47;102527.44;;;11.07;93.40
2339;BME280;1180;51.438;6.978;2023-02-12T07:26:13;102521.69;;;11.65;90.71
2339;BME280;1180;51.438;6.978;2023-02-12T07:28:39;102530.34;;;11.62;86.93
2339;BME280;1180;51.438;6.978;2023-02-12T07:33:33;102536.84;;;11.43;87.31
2339;BME280;1180;51.438;6.978;2023-02-12T07:35:59;102529.22;;;11.39;88.41
2339;BME280;1180;51.438;6.978;2023-02-12T07:38:27;102536.31;;;11.30;87.83
2339;BME280;1180;51.438;6.978;2023-02-12T07:40:52;102532.16;;;11.24;87.70
2339;BME280;1180;51.438;6.978;2023-02-12T07:43:19;102540.09;;;11.16;87.90
2339;BME280;1180;51.438;6.978;2023-02-12T07:45:44;102537.47;;;11.18;88.05
2339;BME280;1180;51.438;6.978;2023-02-12T07:48:09;102546.94;;;11.16;88.22
2339;BME280;1180;51.438;6.978;2023-02-12T07:50:35;102546.13;;;11.13;88.91
2339;BME280;1180;51.438;6.978;2023-02-12T07:53:00;102552.81;;;11.21;88.19
2339;BME280;1180;51.438;6.978;2023-02-12T07:55:25;102545.91;;;11.23;88.27
2339;BME280;1180;51.438;6.978;2023-02-12T07:57:51;102554.41;;;11.25;88.11
2339;BME280;1180;51.438;6.978;2023-02-12T08:00:16;102555.28;;;11.25;87.91
2339;BME280;1180;51.438;6.978;2023-02-12T08:02:42;102551.84;;;11.25;87.70
2339;BME280;1180;51.438;6.978;2023-02-12T08:05:07;102555.28;;;11.24;88.26
2339;BME280;1180;51.438;6.978;2023-02-12T08:07:32;102548.53;;;11.21;88.41
2339;BME280;1180;51.438;6.978;2023-02-12T08:09:58;102550.13;;;11.25;88.50
2339;BME280;1180;51.438;6.978;2023-02-12T08:12:23;102552.47;;;11.35;87.82
2339;BME280;1180;51.438;6.978;2023-02-12T08:14:49;102560.16;;;11.35;87.70
2339;BME280;1180;51.438;6.978;2023-02-12T08:17:14;102562.03;;;11.30;88.13
2339;BME280;1180;51.438;6.978;2023-02-12T08:19:39;102560.97;;;11.37;88.29
2339;BME280;1180;51.438;6.978;2023-02-12T08:22:05;102565.28;;;11.36;87.88
2339;BME280;1180;51.438;6.978;2023-02-12T08:24:31;102566.91;;;11.40;87.68
2339;BME280;1180;51.438;6.978;2023-02-12T08:26:57;102575.56;;;11.36;87.57
2339;BME280;1180;51.438;6.978;2023-02-12T08:29:28;102567.81;;;11.38;87.57
2339;BME280;1180;51.438;6.978;2023-02-12T08:31:56;102576.47;;;11.35;87.87
2339;BME280;1180;51.438;6.978;2023-02-12T08:34:25;102577.34;;;11.34;87.58
2339;BME280;1180;51.438;6.978;2023-02-12T08:36:52;102575.72;;;11.30;87.71
2339;BME280;1180;51.438;6.978;2023-02-12T08:39:21;102578.06;;;11.39;87.54
2339;BME280;1180;51.438;6.978;2023-02-12T08:41:47;102575.50;;;11.38;87.39
2339;BME280;1180;51.438;6.978;2023-02-12T08:44:13;102574.63;;;11.39;87.58
2339;BME280;1180;51.438;6.978;2023-02-12T08:46:42;102571.78;;;11.51;87.34
2339;BME280;1180;51.438;6.978;2023-02-12T08:49:12;102579.50;;;11.50;86.98
2339;BME280;1180;51.438;6.978;2023-02-12T08:51:40;102578.59;;;11.52;87.13
2339;BME280;1180;51.438;6.978;2023-02-12T08:54:10;102577.81;;;11.49;86.71
2339;BME280;1180;51.438;6.978;2023-02-12T08:56:36;102575.16;;;11.52;86.60
2339;BME280;1180;51.438;6.978;2023-02-12T08:59:04;102579.22;;;11.62;86.23
2339;BME280;1180;51.438;6.978;2023-02-12T09:01:31;102576.69;;;11.59;85.20
2339;BME280;1180;51.438;6.978;2023-02-12T09:03:57;102584.19;;;11.68;85.09
2339;BME280;1180;51.438;6.978;2023-02-12T09:06:24;102583.25;;;11.71;84.70
2339;BME280;1180;51.438;6.978;2023-02-12T09:08:50;102591.72;;;11.75;84.65
2339;BME280;1180;51.438;6.978;2023-02-12T09:11:19;102586.63;;;11.73;85.28
2339;BME280;1180;51.438;6.978;2023-02-12T09:13:47;102577.91;;;11.79;84.74
2339;BME280;1180;51.438;6.978;2023-02-12T09:16:13;102586.47;;;11.79;83.71
2339;BME280;1180;51.438;6.978;2023-02-12T09:18:39;102593.25;;;11.82;83.17
2339;BME280;1180;51.438;6.978;2023-02-12T09:21:08;102586.31;;;11.85;81.88
2339;BME280;1180;51.438;6.978;2023-02-12T09:23:36;102591.41;;;11.87;81.19
2339;BME280;1180;51.438;6.978;2023-02-12T09:26:06;102599.19;;;11.84;80.60
2339;BME280;1180;51.438;6.978;2023-02-12T09:28:32;102590.44;;;11.91;81.25
2339;BME280;1180;51.438;6.978;2023-02-12T09:30:58;102598.75;;;12.03;81.15
2339;BME280;1180;51.438;6.978;2023-02-12T09:33:23;102599.53;;;12.05;81.21
2339;BME280;1180;51.438;6.978;2023-02-12T09:35:48;102596.88;;;12.08;81.79
2339;BME280;1180;51.438;6.978;2023-02-12T09:38:14;102598.38;;;12.15;81.19
2339;BME280;1180;51.438;6.978;2023-02-12T09:43:23;102595.72;;;12.18;80.41
2339;BME280;1180;51.438;6.978;2023-02-12T09:51:08;102597.66;;;12.11;79.46
2339;BME280;1180;51.438;6.978;2023-02-12T09:53:37;102595.00;;;12.15;78.74
2339;BME280;1180;51.438;6.978;2023-02-12T09:56:16;102601.38;;;12.31;77.26
2339;BME280;1180;51.438;6.978;2023-02-12T09:58:51;102603.03;;;12.34;77.55
2339;BME280;1180;51.438;6.978;2023-02-12T10:01:20;102608.88;;;12.39;78.09
2339;BME280;1180;51.438;6.978;2023-02-12T10:03:48;102600.38;;;12.37;76.85
2339;BME280;1180;51.438;6.978;2023-02-12T10:06:21;102602.06;;;12.36;76.86
2339;BME280;1180;51.438;6.978;2023-02-12T10:11:32;102605.94;;;12.21;76.61
2339;BME280;1180;51.438;6.978;2023-02-12T10:19:55;102606.59;;;12.30;75.93
2339;BME280;1180;51.438;6.978;2023-02-12T10:27:56;102603.78;;;12.37;75.27
2339;BME280;1180;51.438;6.978;2023-02-12T10:33:15;102603.63;;;12.72;74.53
2339;BME280;1180;51.438;6.978;2023-02-12T10:35:46;102596.44;;;12.23;74.96
2339;BME280;1180;51.438;6.978;2023-02-12T10:38:18;102596.16;;;12.03;76.30
2339;BME280;1180;51.438;6.978;2023-02-12T10:40:45;102600.28;;;12.08;77.01
2339;BME280;1180;51.438;6.978;2023-02-12T10:43:11;102603.34;;;12.23;77.80
2339;BME280;1180;51.438;6.978;2023-02-12T10:45:39;102603.81;;;12.36;76.92
2339;BME280;1180;51.438;6.978;2023-02-12T10:53:44;102591.16;;;12.58;75.03
2339;BME280;1180;51.438;6.978;2023-02-12T10:58:38;102591.75;;;12.38;74.78
2339;BME280;1180;51.438;6.978;2023-02-12T11:01:04;102594.66;;;12.25;75.97
2339;BME280;1180;51.438;6.978;2023-02-12T11:03:32;102593.34;;;12.12;76.27
2339;BME280;1180;51.438;6.978;2023-02-12T11:06:31;102590.94;;;12.36;75.32
2339;BME280;1180;51.438;6.978;2023-02-12T11:08:57;102589.00;;;12.44;74.89
2339;BME280;1180;51.438;6.978;2023-02-12T11:11:29;102588.19;;;12.42;75.02
2339;BME280;1180;51.438;6.978;2023-02-12T11:14:03;102583.97;;;12.39;74.19
2339;BME280;1180;51.438;6.978;2023-02-12T11:16:34;102579.56;;;12.43;74.48
2339;BME280;1180;51.438;6.978;2023-02-12T11:19:05;102578.50;;;12.50;74.65
2339;BME280;1180;51.438;6.978;2023-02-12T11:21:32;102579.66;;;12.68;73.95
2339;BME280;1180;51.438;6.978;2023-02-12T11:27:19;102576.47;;;12.62;73.11
2339;BME280;1180;51.438;6.978;2023-02-12T11:29:45;102574.88;;;12.84;73.53
2339;BME280;1180;51.438;6.978;2023-02-12T11:32:18;102575.78;;;12.83;73.23
2339;BME280;1180;51.438;6.978;2023-02-12T11:35:04;102572.06;;;12.92;72.44
2339;BME280;1180;51.438;6.978;2023-02-12T11:37:31;102569.69;;;12.86;71.78
2339;BME280;1180;51.438;6.978;2023-02-12T11:39:59;102566.94;;;12.64;72.92
2339;BME280;1180;51.438;6.978;2023-02-12T11:42:33;102563.94;;;12.49;73.81
2339;BME280;1180;51.438;6.978;2023-02-12T11:44:59;102559.22;;;12.64;73.62
2339;BME280;1180;51.438;6.978;2023-02-12T11:47:31;102555.84;;;12.89;73.24
2339;BME280;1180;51.438;6.978;2023-02-12T11:50:26;102563.75;;;13.11;72.76
2339;BME280;1180;51.438;6.978;2023-02-12T11:52:56;102565.38;;;13.13;73.15
2339;BME280;1180;51.438;6.978;2023-02-12T11:55:28;102563.47;;;13.19;72.71
2339;BME280;1180;51.438;6.978;2023-02-12T11:58:14;102556.03;;;13.11;73.20
2339;BME280;1180;51.438;6.978;2023-02-12T12:06:39;102555.34;;;13.31;72.40
2339;BME280;1180;51.438;6.978;2023-02-12T12:08:48;102550.78;;;13.39;73.07
2339;BME280;1180;51.438;6.978;2023-02-12T12:11:46;102550.00;;;13.10;72.61
2339;BME280;1180;51.438;6.978;2023-02-12T12:14:43;102546.88;;;13.00;73.04
2339;BME280;1180;51.438;6.978;2023-02-12T12:20:22;102543.66;;;13.21;72.57
2339;BME280;1180;51.438;6.978;2023-02-12T12:23:04;102528.34;;;13.67;76.50
2339;BME280;1180;51.438;6.978;2023-02-12T12:25:41;102530.31;;;13.84;71.92
2339;BME280;1180;51.438;6.978;2023-02-12T12:31:12;102523.63;;;13.29;71.69
2339;BME280;1180;51.438;6.978;2023-02-12T12:33:46;102526.81;;;13.36;71.80
2339;BME280;1180;51.438;6.978;2023-02-12T12:36:23;102535.63;;;13.30;71.55
2339;BME280;1180;51.438;6.978;2023-02-12T13:01:45;102505.25;;;13.13;71.99
2339;BME280;1180;51.438;6.978;2023-02-12T13:07:51;102493.34;;;13.34;71.71
2339;BME280;1180;51.438;6.978;2023-02-12T13:13:08;102485.19;;;13.47;71.93
2339;BME280;1180;51.438;6.978;2023-02-12T13:18:44;102485.28;;;13.45;71.59
2339;BME280;1180;51.438;6.978;2023-02-12T13:21:34;102482.06;;;13.37;70.99
2339;BME280;1180;51.438;6.978;2023-02-12T13:24:06;102477.56;;;13.43;71.33
2339;BME280;1180;51.438;6.978;2023-02-12T13:26:55;102472.50;;;13.40;70.86
2339;BME280;1180;51.438;6.978;2023-02-12T13:29:28;102465.66;;;13.39;71.25
2339;BME280;1180;51.438;6.978;2023-02-12T13:31:59;102466.31;;;13.46;70.86
2339;BME280;1180;51.438;6.978;2023-02-12T13:34:29;102473.28;;;13.44;71.48
2339;BME280;1180;51.438;6.978;2023-02-12T13:36:59;102464.09;;;13.35;70.93
2339;BME280;1180;51.438;6.978;2023-02-12T13:39:35;102458.66;;;13.18;71.35
2339;BME280;1180;51.438;6.978;2023-02-12T13:43:06;102470.31;;;13.04;71.75
2339;BME280;1180;51.438;6.978;2023-02-12T13:48:22;102467.22;;;12.67;74.71
2339;BME280;1180;51.438;6.978;2023-02-12T13:53:29;102466.47;;;13.16;73.48
2339;BME280;1180;51.438;6.978;2023-02-12T13:58:54;102459.53;;;13.42;72.78
2339;BME280;1180;51.438;6.978;2023-02-12T14:07:08;102458.38;;;13.27;72.97
2339;BME280;1180;51.438;6.978;2023-02-12T14:09:45;102461.41;;;13.38;72.13
2339;BME280;1180;51.438;6.978;2023-02-12T14:14:52;102465.09;;;13.31;72.50
2339;BME280;1180;51.438;6.978;2023-02-12T14:27:48;102472.59;;;13.37;72.40
2339;BME280;1180;51.438;6.978;2023-02-12T14:38:00;102468.94;;;13.45;72.40
2339;BME280;1180;51.438;6.978;2023-02-12T14:43:21;102460.63;;;13.11;73.17
2339;BME280;1180;51.438;6.978;2023-02-12T14:45:48;102454.81;;;13.29;73.22
2339;BME280;1180;51.438;6.978;2023-02-12T14:48:43;102458.94;;;13.35;73.11
2339;BME280;1180;51.438;6.978;2023-02-12T14:51:16;102459.63;;;13.39;72.70
2339;BME280;1180;51.438;6.978;2023-02-12T14:53:45;102460.72;;;13.33;72.83
2339;BME280;1180;51.438;6.978;2023-02-12T14:56:12;102465.81;;;13.35;72.72
2339;BME280;1180;51.438;6.978;2023-02-12T14:58:37;102462.50;;;13.31;72.71
2339;BME280;1180;51.438;6.978;2023-02-12T15:01:04;102464.34;;;13.27;72.68
2339;BME280;1180;51.438;6.978;2023-02-12T15:06:10;102458.63;;;12.94;73.83
2339;BME280;1180;51.438;6.978;2023-02-12T15:08:44;102457.66;;;12.71;75.43
2339;BME280;1180;51.438;6.978;2023-02-12T15:14:00;102455.84;;;13.00;74.22
2339;BME280;1180;51.438;6.978;2023-02-12T15:21:30;102449.78;;;13.01;74.05
2339;BME280;1180;51.438;6.978;2023-02-12T15:26:39;102446.63;;;12.93;74.29
2339;BME280;1180;51.438;6.978;2023-02-12T15:29:05;102439.19;;;13.09;74.13
2339;BME280;1180;51.438;6.978;2023-02-12T15:31:32;102435.53;;;13.16;73.80
2339;BME280;1180;51.438;6.978;2023-02-12T15:34:00;102436.56;;;13.10;73.14
2339;BME280;1180;51.438;6.978;2023-02-12T15:36:29;102440.31;;;12.76;74.19
2339;BME280;1180;51.438;6.978;2023-02-12T15:38:57;102437.47;;;12.84;75.87
2339;BME280;1180;51.438;6.978;2023-02-12T15:43:51;102429.84;;;13.06;74.31
2339;BME280;1180;51.438;6.978;2023-02-12T15:46:17;102429.09;;;13.03;73.81
2339;BME280;1180;51.438;6.978;2023-02-12T15:48:43;102434.84;;;13.11;73.55
2339;BME280;1180;51.438;6.978;2023-02-12T15:51:20;102432.53;;;13.03;73.06
2339;BME280;1180;51.438;6.978;2023-02-12T15:53:49;102422.00;;;13.09;73.21
2339;BME280;1180;51.438;6.978;2023-02-12T15:56:17;102424.28;;;12.93;73.42
2339;BME280;1180;51.438;6.978;2023-02-12T15:58:55;102420.16;;;12.88;74.13
2339;BME280;1180;51.438;6.978;2023-02-12T16:01:27;102426.81;;;12.95;74.04
2339;BME280;1180;51.438;6.978;2023-02-12T16:03:59;102420.91;;;12.91;73.80
2339;BME280;1180;51.438;6.978;2023-02-12T16:06:27;102426.03;;;12.93;73.69
2339;BME280;1180;51.438;6.978;2023-02-12T16:09:11;102421.72;;;12.92;74.10
2339;BME280;1180;51.438;6.978;2023-02-12T16:11:42;102420.69;;;12.97;73.54
2339;BME280;1180;51.438;6.978;2023-02-12T16:16:48;102420.34;;;12.83;74.21